createdAt,value
2022-08-04T00:02:11.199Z,22.75
2022-08-04T00:04:20.275Z,23.70
2022-08-04T00:06:39.790Z,23.90
2022-08-04T00:08:45.688Z,24.35
2022-08-04T00:10:50.563Z,24.42
2022-08-04T00:12:58.293Z,23.63
2022-08-04T00:15:01.427Z,23.35
2022-08-04T00:17:05.179Z,23.15
2022-08-04T00:19:27.940Z,23.35
2022-08-04T00:21:32.077Z,22.42
2022-08-04T00:24:12.268Z,23.30
2022-08-04T00:25:57.828Z,23.42
2022-08-04T00:28:01.968Z,22.77
2022-08-04T00:30:04.978Z,23.40
2022-08-04T00:32:08.168Z,24.65
2022-08-04T00:34:13.916Z,24.77
2022-08-04T00:36:16.366Z,24.65
2022-08-04T00:38:18.860Z,24.15
2022-08-04T00:40:42.219Z,24.65
2022-08-04T00:42:58.645Z,23.90
2022-08-04T00:45:25.369Z,24.20
2022-08-04T00:47:45.422Z,24.08
2022-08-04T00:50:05.524Z,22.98
2022-08-04T00:52:31.965Z,24.10
2022-08-04T00:54:42.429Z,23.92
2022-08-04T00:56:59.056Z,24.23
2022-08-04T00:59:31.524Z,23.52
2022-08-04T01:02:10.537Z,24.17
2022-08-04T01:04:22.015Z,25.63
2022-08-04T01:06:37.485Z,25.42
2022-08-04T01:08:57.960Z,25.17
2022-08-04T01:11:16.320Z,26.40
2022-08-04T01:13:59.678Z,27.13
2022-08-04T01:16:11.027Z,27.33
2022-08-04T01:18:22.622Z,27.58
2022-08-04T01:20:32.882Z,27.58
2022-08-04T01:22:34.367Z,27.42
2022-08-04T01:24:50.928Z,27.95
2022-08-04T01:27:06.394Z,28.63
2022-08-04T01:29:17.301Z,27.38
2022-08-04T01:31:40.855Z,28.45
2022-08-04T01:34:03.048Z,26.83
2022-08-04T01:36:06.767Z,27.48
2022-08-04T01:38:21.494Z,28.40
2022-08-04T01:40:26.996Z,27.90
2022-08-04T01:42:32.617Z,27.48
2022-08-04T01:44:36.102Z,28.60
2022-08-04T01:46:38.590Z,27.48
2022-08-04T01:48:41.005Z,29.15
2022-08-04T01:50:43.502Z,28.65
2022-08-04T01:52:50.521Z,28.27
2022-08-04T01:54:53.026Z,28.42
2022-08-04T01:56:56.155Z,28.92
2022-08-04T01:58:57.990Z,30.30
2022-08-04T02:01:08.751Z,28.98
2022-08-04T02:03:14.160Z,30.60
2022-08-04T02:05:17.532Z,29.92
2022-08-04T02:07:50.032Z,30.08
2022-08-04T02:10:29.877Z,29.98
2022-08-04T02:13:17.226Z,28.02
2022-08-04T02:15:21.692Z,28.13
2022-08-04T02:17:30.481Z,27.45
2022-08-04T02:19:58.257Z,27.48
2022-08-04T02:22:10.361Z,26.50
2022-08-04T02:24:14.982Z,26.55
2022-08-04T02:26:22.045Z,27.27
2022-08-04T02:28:35.691Z,27.67
2022-08-04T02:30:58.321Z,30.08
2022-08-04T02:33:03.618Z,29.30
2022-08-04T02:35:28.328Z,32.22
2022-08-04T02:37:33.135Z,34.80
2022-08-04T02:39:48.015Z,34.72
2022-08-04T02:41:50.956Z,36.35
2022-08-04T02:43:56.799Z,36.70
2022-08-04T02:45:59.770Z,35.38
2022-08-04T02:48:19.333Z,35.55
2022-08-04T02:50:28.294Z,34.22
2022-08-04T02:52:30.418Z,34.55
2022-08-04T02:54:35.848Z,36.13
2022-08-04T02:56:38.974Z,35.83
2022-08-04T02:58:42.839Z,35.15
2022-08-04T03:00:45.629Z,34.55
2022-08-04T03:03:16.886Z,34.13
2022-08-04T03:05:20.617Z,33.83
2022-08-04T03:07:28.208Z,30.67
2022-08-04T03:09:51.670Z,29.80
2022-08-04T03:12:12.108Z,29.58
2022-08-04T03:14:50.721Z,29.02
2022-08-04T03:17:33.909Z,29.60
2022-08-04T03:19:54.045Z,29.52
2022-08-04T03:22:18.635Z,31.40
2022-08-04T03:24:30.103Z,32.50
2022-08-04T03:26:40.407Z,31.40
2022-08-04T03:28:57.142Z,27.20
2022-08-04T03:31:30.978Z,26.77
2022-08-04T03:33:45.861Z,28.17
2022-08-04T03:36:05.471Z,28.17
2022-08-04T03:38:25.954Z,26.95
2022-08-04T03:40:39.487Z,26.95
2022-08-04T03:43:05.602Z,25.92
2022-08-04T03:45:45.924Z,22.95
2022-08-04T03:48:18.575Z,23.25
2022-08-04T03:50:32.027Z,22.02
2022-08-04T03:53:01.056Z,21.17
2022-08-04T03:55:36.226Z,20.77
2022-08-04T03:58:16.125Z,18.30
2022-08-04T04:02:40.847Z,13.68
2022-08-04T04:04:48.080Z,14.30
2022-08-04T04:07:17.534Z,12.73
2022-08-04T04:09:52.952Z,11.90
2022-08-04T04:12:11.539Z,11.30
2022-08-04T04:14:15.762Z,11.52
2022-08-04T04:16:37.727Z,11.20
2022-08-04T04:18:49.527Z,10.35
2022-08-04T04:21:08.106Z,11.73
2022-08-04T04:23:27.590Z,11.27
2022-08-04T04:25:50.026Z,11.18
2022-08-04T04:28:44.582Z,11.38
2022-08-04T04:30:53.474Z,11.18
2022-08-04T04:33:10.307Z,11.27
2022-08-04T04:35:35.841Z,12.27
2022-08-04T04:37:48.703Z,14.95
2022-08-04T04:40:04.717Z,12.32
2022-08-04T04:42:44.227Z,12.23
2022-08-04T04:44:51.662Z,12.55
2022-08-04T04:47:14.907Z,12.35
2022-08-04T04:49:40.447Z,13.82
2022-08-04T04:51:50.864Z,12.95
2022-08-04T04:54:13.770Z,13.35
2022-08-04T04:56:23.232Z,13.43
2022-08-04T04:58:25.761Z,14.07
2022-08-04T05:00:51.877Z,13.15
2022-08-04T05:03:24.607Z,13.00
2022-08-04T05:05:41.348Z,12.68
2022-08-04T05:08:43.770Z,12.40
2022-08-04T05:11:09.438Z,12.93
2022-08-04T05:14:37.708Z,13.38
2022-08-04T05:16:02.453Z,13.27
2022-08-04T05:18:07.177Z,12.77
2022-08-04T05:20:20.764Z,13.57
2022-08-04T05:22:32.237Z,12.48
2022-08-04T05:24:38.537Z,13.07
2022-08-04T05:26:50.491Z,12.95
2022-08-04T05:28:57.661Z,12.73
2022-08-04T05:31:16.779Z,13.32
2022-08-04T05:33:29.115Z,13.50
2022-08-04T05:35:47.945Z,13.43
2022-08-04T05:38:01.922Z,13.07
2022-08-04T05:40:05.849Z,13.45
2022-08-04T05:42:07.662Z,12.65
2022-08-04T05:44:10.115Z,13.65
2022-08-04T05:46:12.778Z,13.70
2022-08-04T05:48:14.808Z,13.02
2022-08-04T05:50:16.564Z,12.20
2022-08-04T05:52:18.777Z,12.30
2022-08-04T05:54:21.155Z,11.95
2022-08-04T05:56:22.984Z,12.25
2022-08-04T05:58:25.781Z,12.35
2022-08-04T06:00:40.775Z,11.82
2022-08-04T06:02:45.059Z,10.98
2022-08-04T06:04:49.363Z,11.27
2022-08-04T06:06:50.939Z,10.73
2022-08-04T06:08:52.930Z,11.43
2022-08-04T06:10:57.920Z,11.63
2022-08-04T06:13:03.576Z,9.82
2022-08-04T06:15:07.805Z,9.43
2022-08-04T06:18:32.145Z,10.05
2022-08-04T06:20:03.367Z,9.25
2022-08-04T06:21:59.348Z,8.35
2022-08-04T06:24:04.534Z,9.00
2022-08-04T06:26:07.389Z,8.50
2022-08-04T06:28:10.450Z,9.45
2022-08-04T06:30:14.653Z,10.05
2022-08-04T06:32:41.292Z,9.77
2022-08-04T06:34:43.615Z,8.23
2022-08-04T06:36:45.521Z,8.23
2022-08-04T06:38:47.611Z,9.60
2022-08-04T06:41:03.680Z,7.50
2022-08-04T06:43:07.109Z,7.22
2022-08-04T06:45:10.453Z,6.72
2022-08-04T06:47:18.407Z,6.88
2022-08-04T06:49:20.729Z,9.00
2022-08-04T06:51:30.428Z,6.57
2022-08-04T06:53:37.145Z,7.55
2022-08-04T06:55:39.474Z,6.40
2022-08-04T06:57:41.897Z,6.80
2022-08-04T06:59:45.161Z,6.40
2022-08-04T07:01:47.448Z,6.68
2022-08-04T07:03:50.937Z,6.35
2022-08-04T07:05:52.753Z,6.13
2022-08-04T07:07:57.263Z,5.72
2022-08-04T07:10:02.133Z,5.70
2022-08-04T07:12:04.041Z,5.15
2022-08-04T07:14:05.758Z,4.60
2022-08-04T07:16:07.775Z,6.50
2022-08-04T07:18:09.398Z,6.60
2022-08-04T07:20:11.480Z,5.30
2022-08-04T07:22:25.011Z,5.43
2022-08-04T07:24:31.709Z,5.18
2022-08-04T07:26:33.592Z,5.10
2022-08-04T07:28:35.225Z,5.25
2022-08-04T07:30:37.197Z,4.40
2022-08-04T07:32:39.142Z,4.35
2022-08-04T07:34:41.162Z,5.00
2022-08-04T07:36:50.901Z,4.43
2022-08-04T07:38:54.829Z,5.22
2022-08-04T07:40:57.476Z,4.70
2022-08-04T07:42:59.298Z,4.30
2022-08-04T07:45:00.970Z,3.90
2022-08-04T07:47:05.106Z,3.88
2022-08-04T07:49:06.842Z,4.13
2022-08-04T07:51:08.613Z,4.05
2022-08-04T07:53:53.237Z,3.40
2022-08-04T07:55:34.119Z,3.78
2022-08-04T07:57:40.348Z,3.90
2022-08-04T07:59:45.899Z,3.80
2022-08-04T08:01:54.159Z,3.90
2022-08-04T08:03:57.602Z,3.72
2022-08-04T08:06:30.616Z,2.90
2022-08-04T08:08:21.614Z,3.30
2022-08-04T08:10:24.406Z,3.25
2022-08-04T08:12:35.579Z,3.15
2022-08-04T08:14:47.953Z,3.05
2022-08-04T08:16:49.744Z,2.63
2022-08-04T08:18:51.425Z,2.95
2022-08-04T08:20:53.685Z,2.90
2022-08-04T08:22:55.983Z,2.60
2022-08-04T08:24:57.700Z,2.70
2022-08-04T08:27:00.542Z,2.83
2022-08-04T08:29:03.612Z,2.70
2022-08-04T08:31:11.648Z,2.60
2022-08-04T08:33:18.455Z,3.10
2022-08-04T08:35:20.989Z,2.80
2022-08-04T08:37:28.309Z,2.78
2022-08-04T08:39:39.568Z,2.40
2022-08-04T08:42:19.942Z,2.90
2022-08-04T08:44:30.027Z,2.58
2022-08-04T08:47:02.617Z,2.40
2022-08-04T08:50:01.786Z,2.67
2022-08-04T08:52:13.601Z,2.90
2022-08-04T08:54:44.795Z,2.40
2022-08-04T08:57:01.295Z,2.60
2022-08-04T08:59:15.460Z,2.95
2022-08-04T09:01:35.910Z,2.67
2022-08-04T09:03:58.669Z,2.60
2022-08-04T09:06:12.235Z,2.80
2022-08-04T09:08:54.809Z,2.40
2022-08-04T09:11:07.248Z,2.90
2022-08-04T09:13:18.235Z,2.60
2022-08-04T09:15:36.655Z,2.70
2022-08-04T09:17:49.122Z,2.58
2022-08-04T09:19:59.308Z,2.72
2022-08-04T09:22:19.981Z,2.85
2022-08-04T09:24:41.781Z,2.85
2022-08-04T09:27:04.021Z,2.40
2022-08-04T09:29:14.793Z,2.80
2022-08-04T09:31:23.557Z,2.95
2022-08-04T09:33:45.375Z,2.72
2022-08-04T09:36:07.053Z,2.78
2022-08-04T09:38:26.567Z,2.63
2022-08-04T09:40:58.954Z,2.60
2022-08-04T09:43:59.269Z,2.60
2022-08-04T09:46:09.173Z,3.42
2022-08-04T09:48:24.822Z,3.05
2022-08-04T09:50:49.956Z,2.60
2022-08-04T09:53:16.782Z,2.75
2022-08-04T09:55:54.470Z,2.78
2022-08-04T09:58:12.315Z,3.30
2022-08-04T10:00:16.875Z,2.78
2022-08-04T10:02:25.458Z,3.20
2022-08-04T10:04:31.555Z,2.83
2022-08-04T10:06:39.961Z,2.75
2022-08-04T10:09:01.883Z,2.67
2022-08-04T10:11:08.276Z,2.95
2022-08-04T10:13:19.177Z,2.45
2022-08-04T10:15:35.850Z,2.92
2022-08-04T10:18:10.920Z,2.80
2022-08-04T10:20:35.917Z,3.00
2022-08-04T10:23:16.050Z,3.20
2022-08-04T10:26:07.562Z,3.00
2022-08-04T10:28:06.891Z,2.72
2022-08-04T10:30:13.619Z,2.75
2022-08-04T10:32:29.480Z,2.75
2022-08-04T10:34:38.800Z,3.00
2022-08-04T10:36:48.792Z,3.00
2022-08-04T10:38:57.766Z,2.90
2022-08-04T10:41:22.724Z,2.90
2022-08-04T10:43:36.252Z,2.92
2022-08-04T10:45:45.380Z,2.78
2022-08-04T10:48:10.741Z,2.80
2022-08-04T10:50:13.228Z,3.17
2022-08-04T10:52:23.893Z,3.78
2022-08-04T10:54:31.283Z,2.80
2022-08-04T10:56:32.931Z,2.90
2022-08-04T10:58:47.967Z,3.17
2022-08-04T11:00:57.015Z,2.75
2022-08-04T11:03:09.168Z,3.20
2022-08-04T11:05:16.423Z,3.17
2022-08-04T11:07:18.494Z,3.10
2022-08-04T11:09:20.862Z,2.70
2022-08-04T11:12:00.541Z,2.70
2022-08-04T11:13:57.910Z,2.83
2022-08-04T11:16:04.265Z,2.70
2022-08-04T11:18:17.035Z,2.50
2022-08-04T11:20:36.361Z,2.90
2022-08-04T11:22:43.196Z,2.65
2022-08-04T11:24:50.840Z,3.00
2022-08-04T11:27:16.178Z,2.50
2022-08-04T11:29:26.731Z,2.58
2022-08-04T11:31:33.138Z,3.00
2022-08-04T11:33:45.981Z,2.70
2022-08-04T11:35:55.870Z,2.60
2022-08-04T11:38:08.550Z,2.78
2022-08-04T11:40:22.137Z,2.65
2022-08-04T11:42:27.527Z,2.58
2022-08-04T11:44:37.915Z,2.38
2022-08-04T11:46:45.110Z,2.70
2022-08-04T11:49:01.470Z,2.70
2022-08-04T11:51:06.689Z,2.45
2022-08-04T11:53:09.768Z,2.40
2022-08-04T11:55:14.445Z,2.40
2022-08-04T11:57:16.155Z,2.50
2022-08-04T11:59:18.043Z,2.53
2022-08-04T12:01:28.768Z,2.50
2022-08-04T12:04:03.987Z,2.78
2022-08-04T12:06:22.593Z,4.85
2022-08-04T12:08:36.817Z,2.38
2022-08-04T12:10:47.588Z,2.30
2022-08-04T12:13:22.265Z,2.80
2022-08-04T12:15:28.039Z,2.70
2022-08-04T12:17:52.778Z,2.60
2022-08-04T12:20:05.286Z,3.10
2022-08-04T12:22:28.301Z,2.53
2022-08-04T12:24:41.896Z,2.80
2022-08-04T12:26:50.940Z,2.50
2022-08-04T12:29:14.320Z,2.50
2022-08-04T12:31:27.524Z,2.40
2022-08-04T12:33:41.613Z,2.65
2022-08-04T12:36:21.764Z,2.67
2022-08-04T12:38:26.518Z,2.42
2022-08-04T12:40:32.491Z,2.30
2022-08-04T12:42:41.082Z,2.65
2022-08-04T12:44:58.490Z,2.58
2022-08-04T12:47:26.495Z,2.60
2022-08-04T12:49:23.549Z,2.30
2022-08-04T12:52:06.312Z,2.55
2022-08-04T12:53:51.052Z,2.25
2022-08-04T12:56:01.495Z,2.30
2022-08-04T12:58:12.668Z,2.40
2022-08-04T13:00:31.280Z,2.40
2022-08-04T13:02:44.155Z,2.17
2022-08-04T13:04:51.413Z,2.40
2022-08-04T13:07:16.867Z,2.40
2022-08-04T13:09:21.158Z,2.85
2022-08-04T13:11:23.487Z,2.90
2022-08-04T13:13:28.357Z,2.47
2022-08-04T13:15:31.126Z,2.45
2022-08-04T13:17:51.053Z,2.97
2022-08-04T13:19:55.016Z,2.53
2022-08-04T13:22:03.136Z,2.40
2022-08-04T13:24:19.738Z,2.53
2022-08-04T13:26:44.160Z,2.70
2022-08-04T13:28:49.411Z,2.50
2022-08-04T13:30:57.735Z,2.80
2022-08-04T13:33:01.830Z,2.30
2022-08-04T13:35:05.881Z,2.40
2022-08-04T13:37:07.978Z,2.38
2022-08-04T13:39:20.909Z,2.10
2022-08-04T13:41:22.737Z,2.50
2022-08-04T13:44:16.458Z,2.28
2022-08-04T13:46:04.545Z,2.25
2022-08-04T13:48:20.192Z,2.30
2022-08-04T13:50:30.289Z,2.20
2022-08-04T13:52:33.697Z,2.13
2022-08-04T13:54:42.760Z,2.05
2022-08-04T13:56:50.618Z,2.30
2022-08-04T13:58:56.034Z,2.40
2022-08-04T14:01:00.761Z,2.80
2022-08-04T14:03:19.137Z,2.58
2022-08-04T14:05:33.806Z,1.90
2022-08-04T14:07:42.683Z,2.35
2022-08-04T14:10:02.956Z,2.22
2022-08-04T14:12:38.645Z,2.70
2022-08-04T14:14:35.174Z,2.22
2022-08-04T14:16:36.741Z,2.35
2022-08-04T14:18:38.284Z,2.90
2022-08-04T14:20:57.878Z,2.42
2022-08-04T14:25:15.204Z,2.78
2022-08-04T14:27:17.919Z,2.30
2022-08-04T14:29:28.740Z,2.38
2022-08-04T14:31:31.291Z,2.63
2022-08-04T14:34:01.837Z,2.20
2022-08-04T14:36:04.389Z,2.50
2022-08-04T14:38:08.694Z,2.22
2022-08-04T14:40:30.483Z,2.00
2022-08-04T14:42:43.750Z,2.05
2022-08-04T14:44:56.369Z,2.00
2022-08-04T14:46:59.257Z,2.10
2022-08-04T14:49:09.977Z,1.90
2022-08-04T14:51:15.076Z,2.13
2022-08-04T14:53:19.468Z,2.22
2022-08-04T14:55:23.494Z,2.95
2022-08-04T14:57:25.325Z,2.38
2022-08-04T14:59:27.142Z,2.17
2022-08-04T15:01:29.408Z,2.40
2022-08-04T15:03:32.613Z,2.50
2022-08-04T15:06:00.814Z,2.20
2022-08-04T15:07:58.189Z,2.47
2022-08-04T15:09:59.824Z,2.13
2022-08-04T15:12:04.488Z,2.05
2022-08-04T15:14:06.671Z,2.13
2022-08-04T15:16:11.367Z,2.22
2022-08-04T15:18:13.160Z,2.50
2022-08-04T15:20:15.194Z,2.67
2022-08-04T15:22:17.668Z,2.65
2022-08-04T15:24:19.435Z,2.13
2022-08-04T15:26:38.300Z,2.20
2022-08-04T15:28:41.916Z,2.50
2022-08-04T15:30:46.041Z,2.40
2022-08-04T15:32:51.857Z,2.40
2022-08-04T15:34:54.962Z,2.65
2022-08-04T15:36:57.987Z,2.45
2022-08-04T15:39:05.037Z,2.00
2022-08-04T15:41:16.388Z,2.20
2022-08-04T15:43:45.087Z,2.30
2022-08-04T15:46:02.936Z,2.85
2022-08-04T15:48:16.904Z,2.55
2022-08-04T15:50:28.159Z,2.30
2022-08-04T15:52:31.960Z,2.10
2022-08-04T15:54:36.706Z,2.92
2022-08-04T15:56:48.530Z,2.40
2022-08-04T15:59:04.457Z,2.45
2022-08-04T16:01:05.992Z,2.00
2022-08-04T16:03:53.202Z,2.20
2022-08-04T16:05:57.767Z,2.70
2022-08-04T16:08:10.973Z,2.53
2022-08-04T16:10:30.542Z,2.80
2022-08-04T16:12:55.313Z,2.70
2022-08-04T16:15:35.447Z,2.40
2022-08-04T16:17:40.353Z,2.33
2022-08-04T16:19:47.528Z,2.78
2022-08-04T16:21:51.160Z,2.55
2022-08-04T16:23:56.954Z,2.30
2022-08-04T16:26:01.126Z,2.42
2022-08-04T16:28:02.674Z,2.42
2022-08-04T16:30:13.905Z,2.63
2022-08-04T16:32:24.368Z,2.25
2022-08-04T16:34:47.197Z,2.20
2022-08-04T16:36:55.938Z,2.70
2022-08-04T16:39:02.691Z,2.08
2022-08-04T16:41:04.513Z,2.55
2022-08-04T16:43:17.227Z,2.45
2022-08-04T16:45:18.836Z,2.50
2022-08-04T16:47:49.024Z,2.17
2022-08-04T16:50:01.617Z,2.63
2022-08-04T16:52:11.912Z,2.38
2022-08-04T16:54:15.474Z,3.45
2022-08-04T16:56:20.648Z,2.50
2022-08-04T16:58:28.289Z,2.20
2022-08-04T17:00:38.018Z,2.58
2022-08-04T17:02:39.994Z,2.28
2022-08-04T17:04:41.646Z,2.30
2022-08-04T17:06:46.264Z,2.70
2022-08-04T17:08:49.421Z,2.40
2022-08-04T17:10:51.123Z,2.60
2022-08-04T17:13:03.648Z,2.72
2022-08-04T17:15:24.453Z,2.60
2022-08-04T17:18:05.661Z,2.72
2022-08-04T17:19:52.805Z,2.90
2022-08-04T17:22:02.989Z,3.30
2022-08-04T17:24:16.545Z,2.95
2022-08-04T17:26:24.011Z,2.60
2022-08-04T17:28:47.616Z,5.57
2022-08-04T17:30:51.549Z,10.98
2022-08-04T17:32:53.405Z,20.35
2022-08-04T17:34:57.382Z,16.25
2022-08-04T17:37:24.336Z,10.18
2022-08-04T17:39:25.370Z,8.55
2022-08-04T17:41:30.471Z,9.45
2022-08-04T17:44:02.867Z,7.15
2022-08-04T17:46:30.147Z,5.60
2022-08-04T17:48:31.974Z,3.75
2022-08-04T17:50:36.373Z,3.40
2022-08-04T17:52:45.081Z,3.17
2022-08-04T17:54:47.218Z,3.30
2022-08-04T17:56:52.456Z,3.40
2022-08-04T17:59:12.401Z,3.53
2022-08-04T18:01:24.500Z,3.78
2022-08-04T18:03:30.039Z,3.20
2022-08-04T18:06:01.773Z,3.65
2022-08-04T18:08:40.587Z,4.53
2022-08-04T18:10:30.255Z,4.95
2022-08-04T18:12:38.219Z,4.68
2022-08-04T18:14:49.150Z,4.60
2022-08-04T18:16:50.945Z,4.63
2022-08-04T18:19:11.715Z,4.13
2022-08-04T18:21:13.401Z,3.95
2022-08-04T18:23:16.746Z,4.20
2022-08-04T18:25:23.082Z,4.43
2022-08-04T18:27:47.601Z,4.70
2022-08-04T18:30:31.163Z,4.78
2022-08-04T18:32:12.129Z,4.30
2022-08-04T18:34:19.102Z,4.45
2022-08-04T18:36:33.320Z,4.25
2022-08-04T18:38:38.702Z,7.40
2022-08-04T18:40:57.544Z,7.90
2022-08-04T18:43:00.478Z,9.48
2022-08-04T18:45:03.369Z,10.20
2022-08-04T18:47:22.552Z,11.50
2022-08-04T18:50:31.986Z,8.10
2022-08-04T18:51:48.891Z,5.90
2022-08-04T18:53:58.670Z,13.18
2022-08-04T18:56:00.947Z,5.95
2022-08-04T18:58:06.488Z,5.63
2022-08-04T19:00:10.454Z,7.18
2022-08-04T19:02:16.861Z,6.07
2022-08-04T19:04:33.975Z,8.00
2022-08-04T19:06:41.376Z,16.70
2022-08-04T19:11:28.737Z,14.73
2022-08-04T19:13:27.887Z,29.02
2022-08-04T19:15:34.775Z,49.13
2022-08-04T19:17:53.654Z,11.88
2022-08-04T19:19:58.118Z,12.45
2022-08-04T19:22:02.892Z,16.67
2022-08-04T19:24:31.054Z,15.75
2022-08-04T19:26:31.382Z,10.38
2022-08-04T19:28:36.439Z,7.40
2022-08-04T19:30:39.358Z,7.55
2022-08-04T19:32:48.178Z,7.50
2022-08-04T19:34:49.897Z,10.55
2022-08-04T19:36:51.493Z,12.18
2022-08-04T19:38:53.586Z,11.65
2022-08-04T19:40:55.845Z,11.02
2022-08-04T19:43:07.423Z,13.52
2022-08-04T19:45:16.113Z,11.35
2022-08-04T19:50:05.256Z,17.30
2022-08-04T19:52:01.094Z,11.65
2022-08-04T19:54:16.630Z,12.80
2022-08-04T19:56:25.701Z,9.23
2022-08-04T19:58:27.465Z,7.88
2022-08-04T20:00:33.946Z,6.30
2022-08-04T20:02:36.151Z,6.22
2022-08-04T20:04:37.744Z,5.88
2022-08-04T20:06:39.719Z,13.30
2022-08-04T20:08:48.385Z,28.90
2022-08-04T20:10:51.620Z,21.23
2022-08-04T20:12:55.798Z,8.75
2022-08-04T20:14:57.605Z,7.68
2022-08-04T20:17:02.521Z,7.35
2022-08-04T20:19:06.225Z,9.07
2022-08-04T20:21:22.714Z,7.20
2022-08-04T20:23:28.634Z,7.72
2022-08-04T20:25:47.587Z,6.65
2022-08-04T20:27:59.966Z,6.85
2022-08-04T20:30:13.988Z,6.90
2022-08-04T20:32:22.550Z,8.85
2022-08-04T20:34:24.306Z,8.65
2022-08-04T20:36:26.586Z,10.27
2022-08-04T20:38:33.669Z,9.88
2022-08-04T20:40:36.717Z,9.50
2022-08-04T20:42:38.397Z,9.43
2022-08-04T20:44:42.117Z,9.75
2022-08-04T20:46:48.022Z,9.52
2022-08-04T20:48:49.568Z,9.30
2022-08-04T20:50:51.115Z,8.70
2022-08-04T20:52:52.683Z,10.15
2022-08-04T20:54:56.277Z,10.63
2022-08-04T20:56:59.720Z,12.25
2022-08-04T20:59:01.410Z,12.98
2022-08-04T21:01:09.695Z,12.65
2022-08-04T21:03:12.597Z,13.25
2022-08-04T21:05:14.241Z,13.55
2022-08-04T21:07:16.958Z,13.13
2022-08-04T21:09:37.351Z,14.68
2022-08-04T21:11:44.718Z,14.30
2022-08-04T21:13:52.768Z,13.43
2022-08-04T21:15:58.975Z,11.13
2022-08-04T21:18:04.436Z,10.60
2022-08-04T21:20:06.982Z,11.63
2022-08-04T21:22:14.834Z,11.68
2022-08-04T21:24:31.507Z,11.80
2022-08-04T21:26:33.586Z,12.52
2022-08-04T21:28:35.235Z,10.00
2022-08-04T21:30:52.378Z,10.50
2022-08-04T21:32:56.338Z,9.48
2022-08-04T21:34:59.806Z,9.60
2022-08-04T21:37:02.410Z,9.45
2022-08-04T21:39:04.868Z,9.85
2022-08-04T21:41:13.751Z,10.45
2022-08-04T21:43:28.449Z,9.88
2022-08-04T21:45:36.489Z,9.95
2022-08-04T21:47:46.649Z,11.83
2022-08-04T21:49:56.246Z,14.57
2022-08-04T21:52:01.650Z,14.75
2022-08-04T21:54:11.576Z,14.20
2022-08-04T21:56:18.730Z,13.82
2022-08-04T21:58:29.153Z,14.02
2022-08-04T22:00:34.562Z,13.77
2022-08-04T22:02:36.093Z,13.50
2022-08-04T22:04:37.726Z,13.43
2022-08-04T22:06:39.279Z,13.40
2022-08-04T22:08:43.479Z,12.80
2022-08-04T22:10:51.083Z,12.88
2022-08-04T22:12:52.777Z,13.25
2022-08-04T22:14:57.692Z,12.15
2022-08-04T22:17:02.605Z,11.98
2022-08-04T22:19:05.456Z,12.35
2022-08-04T22:21:12.127Z,11.18
2022-08-04T22:23:16.824Z,10.80
2022-08-04T22:25:20.720Z,10.80
2022-08-04T22:27:40.632Z,10.52
2022-08-04T22:29:44.844Z,11.32
2022-08-04T22:31:53.214Z,11.55
2022-08-04T22:33:58.149Z,11.55
2022-08-04T22:36:01.409Z,11.43
2022-08-04T22:38:06.715Z,10.93
2022-08-04T22:40:11.640Z,9.85
2022-08-04T22:42:14.809Z,10.40
2022-08-04T22:44:16.390Z,10.45
2022-08-04T22:46:25.931Z,11.10
2022-08-04T22:48:27.481Z,11.73
2022-08-04T22:50:29.197Z,11.00
2022-08-04T22:52:32.186Z,10.95
2022-08-04T22:54:33.903Z,10.95
2022-08-04T22:56:37.513Z,11.02
2022-08-04T22:58:45.339Z,10.43
2022-08-04T23:00:54.015Z,10.70
2022-08-04T23:02:59.682Z,10.60
2022-08-04T23:05:01.254Z,10.68
2022-08-04T23:07:09.000Z,12.00
2022-08-04T23:09:16.038Z,10.80
2022-08-04T23:11:17.901Z,11.65
2022-08-04T23:13:19.896Z,13.27
2022-08-04T23:15:21.453Z,12.30
2022-08-04T23:17:23.911Z,12.13
2022-08-04T23:19:29.959Z,11.77
2022-08-04T23:21:40.941Z,13.05
2022-08-04T23:24:00.941Z,14.20
2022-08-04T23:26:11.354Z,13.68
2022-08-04T23:28:12.915Z,12.90
2022-08-04T23:30:15.098Z,12.85
2022-08-04T23:32:20.450Z,12.13
2022-08-04T23:34:22.137Z,11.75
2022-08-04T23:36:29.833Z,12.95
2022-08-04T23:38:33.023Z,11.90
2022-08-04T23:40:50.624Z,12.30
2022-08-04T23:42:52.515Z,11.90
2022-08-04T23:44:54.821Z,12.88
2022-08-04T23:47:04.576Z,12.63
2022-08-04T23:49:08.894Z,14.52
2022-08-04T23:51:14.381Z,13.50
2022-08-04T23:53:18.658Z,13.63
2022-08-04T23:55:24.639Z,12.20
2022-08-04T23:58:06.015Z,12.02
2022-08-04T23:59:55.206Z,10.60
